sensor_id;sensor_type;location;lat;lon;timestamp;P1;durP1;ratioP1;P2;durP2;ratioP2
76393;SDS011;65216;51.090;-115.352;2023-12-07T00:02:10;33.50;;;2.80;;
76393;SDS011;65216;51.090;-115.352;2023-12-07T00:04:38;24.90;;;2.80;;
76393;SDS011;65216;51.090;-115.352;2023-12-07T00:07:05;26.10;;;2.80;;
76393;SDS011;65216;51.090;-115.352;2023-12-07T00:09:32;19.00;;;2.50;;
76393;SDS011;65216;51.090;-115.352;2023-12-07T00:11:59;20.60;;;2.20;;
76393;SDS011;65216;51.090;-115.352;2023-12-07T00:14:26;32.30;;;2.80;;
76393;SDS011;65216;51.090;-115.352;2023-12-07T00:16:53;24.70;;;2.10;;
76393;SDS011;65216;51.090;-115.352;2023-12-07T00:19:20;21.90;;;2.40;;
76393;SDS011;65216;51.090;-115.352;2023-12-07T00:21:50;25.30;;;3.00;;
76393;SDS011;65216;51.090;-115.352;2023-12-07T00:24:16;26.60;;;2.00;;
76393;SDS011;65216;51.090;-115.352;2023-12-07T00:26:43;26.80;;;2.60;;
76393;SDS011;65216;51.090;-115.352;2023-12-07T00:29:10;25.00;;;2.10;;
76393;SDS011;65216;51.090;-115.352;2023-12-07T00:31:37;19.60;;;2.40;;
76393;SDS011;65216;51.090;-115.352;2023-12-07T00:34:04;26.30;;;2.20;;
76393;SDS011;65216;51.090;-115.352;2023-12-07T00:36:31;29.00;;;2.30;;
76393;SDS011;65216;51.090;-115.352;2023-12-07T00:38:58;19.30;;;2.40;;
76393;SDS011;65216;51.090;-115.352;2023-12-07T00:41:26;21.60;;;2.30;;
76393;SDS011;65216;51.090;-115.352;2023-12-07T00:43:53;25.60;;;2.40;;
76393;SDS011;65216;51.090;-115.352;2023-12-07T00:46:20;23.80;;;2.50;;
76393;SDS011;65216;51.090;-115.352;2023-12-07T00:48:50;25.90;;;2.80;;
76393;SDS011;65216;51.090;-115.352;2023-12-07T00:51:17;25.00;;;3.10;;
76393;SDS011;65216;51.090;-115.352;2023-12-07T00:53:44;21.80;;;2.70;;
76393;SDS011;65216;51.090;-115.352;2023-12-07T00:56:11;21.00;;;2.70;;
76393;SDS011;65216;51.090;-115.352;2023-12-07T00:58:38;21.70;;;2.90;;
76393;SDS011;65216;51.090;-115.352;2023-12-07T01:01:05;18.20;;;1.90;;
76393;SDS011;65216;51.090;-115.352;2023-12-07T01:03:32;13.50;;;1.80;;
76393;SDS011;65216;51.090;-115.352;2023-12-07T01:05:58;20.10;;;2.30;;
76393;SDS011;65216;51.090;-115.352;2023-12-07T01:08:25;19.50;;;2.40;;
76393;SDS011;65216;51.090;-115.352;2023-12-07T01:10:52;17.50;;;2.00;;
76393;SDS011;65216;51.090;-115.352;2023-12-07T01:13:19;26.30;;;2.60;;
76393;SDS011;65216;51.090;-115.352;2023-12-07T01:15:46;16.30;;;1.70;;
76393;SDS011;65216;51.090;-115.352;2023-12-07T01:18:15;21.80;;;2.40;;
76393;SDS011;65216;51.090;-115.352;2023-12-07T01:20:43;14.20;;;1.70;;
76393;SDS011;65216;51.090;-115.352;2023-12-07T01:23:14;21.00;;;1.90;;
76393;SDS011;65216;51.090;-115.352;2023-12-07T01:25:41;18.40;;;2.00;;
76393;SDS011;65216;51.090;-115.352;2023-12-07T01:28:08;20.50;;;1.90;;
76393;SDS011;65216;51.090;-115.352;2023-12-07T01:30:36;22.20;;;2.20;;
76393;SDS011;65216;51.090;-115.352;2023-12-07T01:33:03;22.60;;;2.10;;
76393;SDS011;65216;51.090;-115.352;2023-12-07T01:35:31;13.60;;;1.80;;
76393;SDS011;65216;51.090;-115.352;2023-12-07T01:37:58;18.90;;;2.40;;
76393;SDS011;65216;51.090;-115.352;2023-12-07T01:40:25;18.10;;;2.70;;
76393;SDS011;65216;51.090;-115.352;2023-12-07T01:42:53;15.80;;;1.80;;
76393;SDS011;65216;51.090;-115.352;2023-12-07T01:45:21;21.90;;;2.00;;
76393;SDS011;65216;51.090;-115.352;2023-12-07T01:47:50;21.60;;;2.50;;
76393;SDS011;65216;51.090;-115.352;2023-12-07T01:50:21;21.30;;;2.10;;
76393;SDS011;65216;51.090;-115.352;2023-12-07T01:52:54;20.20;;;2.00;;
76393;SDS011;65216;51.090;-115.352;2023-12-07T01:55:27;20.50;;;2.20;;
76393;SDS011;65216;51.090;-115.352;2023-12-07T01:57:58;24.20;;;2.00;;
76393;SDS011;65216;51.090;-115.352;2023-12-07T02:00:26;16.60;;;2.20;;
76393;SDS011;65216;51.090;-115.352;2023-12-07T02:02:54;19.20;;;2.40;;
76393;SDS011;65216;51.090;-115.352;2023-12-07T02:05:22;22.10;;;3.60;;
76393;SDS011;65216;51.090;-115.352;2023-12-07T02:07:50;22.90;;;2.10;;
76393;SDS011;65216;51.090;-115.352;2023-12-07T02:10:19;21.00;;;2.30;;
76393;SDS011;65216;51.090;-115.352;2023-12-07T02:12:47;19.40;;;2.70;;
76393;SDS011;65216;51.090;-115.352;2023-12-07T02:15:15;21.10;;;2.10;;
76393;SDS011;65216;51.090;-115.352;2023-12-07T02:23:47;34.80;;;2.50;;
76393;SDS011;65216;51.090;-115.352;2023-12-07T02:26:22;18.20;;;2.30;;
76393;SDS011;65216;51.090;-115.352;2023-12-07T02:29:03;18.10;;;2.00;;
76393;SDS011;65216;51.090;-115.352;2023-12-07T02:31:31;30.30;;;3.40;;
76393;SDS011;65216;51.090;-115.352;2023-12-07T02:33:59;22.70;;;2.20;;
76393;SDS011;65216;51.090;-115.352;2023-12-07T02:36:28;22.40;;;2.20;;
76393;SDS011;65216;51.090;-115.352;2023-12-07T02:38:59;22.60;;;2.40;;
76393;SDS011;65216;51.090;-115.352;2023-12-07T02:41:31;18.40;;;2.10;;
76393;SDS011;65216;51.090;-115.352;2023-12-07T02:44:03;23.10;;;2.00;;
76393;SDS011;65216;51.090;-115.352;2023-12-07T02:46:30;26.40;;;2.70;;
76393;SDS011;65216;51.090;-115.352;2023-12-07T02:48:58;25.10;;;2.50;;
76393;SDS011;65216;51.090;-115.352;2023-12-07T02:51:25;17.70;;;2.30;;
76393;SDS011;65216;51.090;-115.352;2023-12-07T02:53:53;35.20;;;3.20;;
76393;SDS011;65216;51.090;-115.352;2023-12-07T02:56:20;27.00;;;2.90;;
76393;SDS011;65216;51.090;-115.352;2023-12-07T02:58:47;23.10;;;2.60;;
76393;SDS011;65216;51.090;-115.352;2023-12-07T03:01:14;17.70;;;2.30;;
76393;SDS011;65216;51.090;-115.352;2023-12-07T03:03:42;30.30;;;2.80;;
76393;SDS011;65216;51.090;-115.352;2023-12-07T03:06:09;20.40;;;2.10;;
76393;SDS011;65216;51.090;-115.352;2023-12-07T03:08:37;21.00;;;2.50;;
76393;SDS011;65216;51.090;-115.352;2023-12-07T03:11:05;27.10;;;2.30;;
76393;SDS011;65216;51.090;-115.352;2023-12-07T03:13:32;32.40;;;2.80;;
76393;SDS011;65216;51.090;-115.352;2023-12-07T03:15:59;19.70;;;2.20;;
76393;SDS011;65216;51.090;-115.352;2023-12-07T03:18:26;23.60;;;2.20;;
76393;SDS011;65216;51.090;-115.352;2023-12-07T03:20:55;24.10;;;2.40;;
76393;SDS011;65216;51.090;-115.352;2023-12-07T03:23:22;25.00;;;2.20;;
76393;SDS011;65216;51.090;-115.352;2023-12-07T03:25:50;26.20;;;2.00;;
76393;SDS011;65216;51.090;-115.352;2023-12-07T03:28:17;19.70;;;1.90;;
76393;SDS011;65216;51.090;-115.352;2023-12-07T03:30:45;17.40;;;1.80;;
76393;SDS011;65216;51.090;-115.352;2023-12-07T03:33:11;16.20;;;1.80;;
76393;SDS011;65216;51.090;-115.352;2023-12-07T03:35:39;21.20;;;1.60;;
76393;SDS011;65216;51.090;-115.352;2023-12-07T03:38:09;16.70;;;1.80;;
76393;SDS011;65216;51.090;-115.352;2023-12-07T03:40:37;13.30;;;1.70;;
76393;SDS011;65216;51.090;-115.352;2023-12-07T03:43:06;22.60;;;2.10;;
76393;SDS011;65216;51.090;-115.352;2023-12-07T03:45:33;18.70;;;2.20;;
76393;SDS011;65216;51.090;-115.352;2023-12-07T03:48:00;19.40;;;2.00;;
76393;SDS011;65216;51.090;-115.352;2023-12-07T03:50:27;17.60;;;1.80;;
76393;SDS011;65216;51.090;-115.352;2023-12-07T03:52:55;17.40;;;1.50;;
76393;SDS011;65216;51.090;-115.352;2023-12-07T03:55:22;16.50;;;1.80;;
76393;SDS011;65216;51.090;-115.352;2023-12-07T03:57:49;17.80;;;2.30;;
76393;SDS011;65216;51.090;-115.352;2023-12-07T04:00:17;12.80;;;1.40;;
76393;SDS011;65216;51.090;-115.352;2023-12-07T04:02:44;11.80;;;1.40;;
76393;SDS011;65216;51.090;-115.352;2023-12-07T04:05:14;15.50;;;1.60;;
76393;SDS011;65216;51.090;-115.352;2023-12-07T04:07:41;13.00;;;1.30;;
76393;SDS011;65216;51.090;-115.352;2023-12-07T04:10:09;15.50;;;1.50;;
76393;SDS011;65216;51.090;-115.352;2023-12-07T04:12:36;13.30;;;1.60;;
76393;SDS011;65216;51.090;-115.352;2023-12-07T04:15:07;14.00;;;1.40;;
76393;SDS011;65216;51.090;-115.352;2023-12-07T04:17:34;9.90;;;1.20;;
76393;SDS011;65216;51.090;-115.352;2023-12-07T04:20:01;11.60;;;1.50;;
76393;SDS011;65216;51.090;-115.352;2023-12-07T04:22:28;14.40;;;1.10;;
76393;SDS011;65216;51.090;-115.352;2023-12-07T04:24:55;11.70;;;1.70;;
76393;SDS011;65216;51.090;-115.352;2023-12-07T04:27:22;11.20;;;1.10;;
76393;SDS011;65216;51.090;-115.352;2023-12-07T04:29:49;7.60;;;1.20;;
76393;SDS011;65216;51.090;-115.352;2023-12-07T04:32:16;9.50;;;0.90;;
76393;SDS011;65216;51.090;-115.352;2023-12-07T04:34:45;8.00;;;1.00;;
76393;SDS011;65216;51.090;-115.352;2023-12-07T04:37:11;10.90;;;1.00;;
76393;SDS011;65216;51.090;-115.352;2023-12-07T04:39:38;7.20;;;1.00;;
76393;SDS011;65216;51.090;-115.352;2023-12-07T04:42:05;6.90;;;1.00;;
76393;SDS011;65216;51.090;-115.352;2023-12-07T04:44:32;6.30;;;0.80;;
76393;SDS011;65216;51.090;-115.352;2023-12-07T04:47:02;7.10;;;1.20;;
76393;SDS011;65216;51.090;-115.352;2023-12-07T04:49:34;8.40;;;0.80;;
76393;SDS011;65216;51.090;-115.352;2023-12-07T04:52:00;7.40;;;0.90;;
76393;SDS011;65216;51.090;-115.352;2023-12-07T04:54:27;4.30;;;1.00;;
76393;SDS011;65216;51.090;-115.352;2023-12-07T04:56:54;5.00;;;0.70;;
76393;SDS011;65216;51.090;-115.352;2023-12-07T04:59:21;5.80;;;0.60;;
76393;SDS011;65216;51.090;-115.352;2023-12-07T05:01:50;7.60;;;0.80;;
76393;SDS011;65216;51.090;-115.352;2023-12-07T05:04:19;4.70;;;0.70;;
76393;SDS011;65216;51.090;-115.352;2023-12-07T05:06:46;4.40;;;0.50;;
76393;SDS011;65216;51.090;-115.352;2023-12-07T05:09:12;1.40;;;0.20;;
76393;SDS011;65216;51.090;-115.352;2023-12-07T05:11:39;2.50;;;0.50;;
76393;SDS011;65216;51.090;-115.352;2023-12-07T05:14:06;2.30;;;0.40;;
76393;SDS011;65216;51.090;-115.352;2023-12-07T05:16:34;3.50;;;0.40;;
76393;SDS011;65216;51.090;-115.352;2023-12-07T05:19:00;2.20;;;0.40;;
76393;SDS011;65216;51.090;-115.352;2023-12-07T05:21:28;2.40;;;0.40;;
76393;SDS011;65216;51.090;-115.352;2023-12-07T05:23:55;3.20;;;0.20;;
76393;SDS011;65216;51.090;-115.352;2023-12-07T05:26:21;1.10;;;0.20;;
76393;SDS011;65216;51.090;-115.352;2023-12-07T05:28:48;3.20;;;0.40;;
76393;SDS011;65216;51.090;-115.352;2023-12-07T05:31:17;2.50;;;0.40;;
76393;SDS011;65216;51.090;-115.352;2023-12-07T05:33:46;2.30;;;0.30;;
76393;SDS011;65216;51.090;-115.352;2023-12-07T05:36:13;2.20;;;0.40;;
76393;SDS011;65216;51.090;-115.352;2023-12-07T05:38:39;0.80;;;0.20;;
76393;SDS011;65216;51.090;-115.352;2023-12-07T05:41:06;1.70;;;0.30;;
76393;SDS011;65216;51.090;-115.352;2023-12-07T05:43:33;2.00;;;0.40;;
76393;SDS011;65216;51.090;-115.352;2023-12-07T05:46:00;1.90;;;0.20;;
76393;SDS011;65216;51.090;-115.352;2023-12-07T05:48:29;0.60;;;0.10;;
76393;SDS011;65216;51.090;-115.352;2023-12-07T05:50:56;2.70;;;0.40;;
76393;SDS011;65216;51.090;-115.352;2023-12-07T05:53:25;1.40;;;0.40;;
76393;SDS011;65216;51.090;-115.352;2023-12-07T05:55:52;1.20;;;0.30;;
76393;SDS011;65216;51.090;-115.352;2023-12-07T05:58:23;4.90;;;1.40;;
76393;SDS011;65216;51.090;-115.352;2023-12-07T06:00:50;1.30;;;0.50;;
76393;SDS011;65216;51.090;-115.352;2023-12-07T06:03:17;3.50;;;1.30;;
76393;SDS011;65216;51.090;-115.352;2023-12-07T06:05:43;2.00;;;0.80;;
76393;SDS011;65216;51.090;-115.352;2023-12-07T06:08:11;2.20;;;0.60;;
76393;SDS011;65216;51.090;-115.352;2023-12-07T06:10:37;1.80;;;0.70;;
76393;SDS011;65216;51.090;-115.352;2023-12-07T06:13:04;3.00;;;0.80;;
76393;SDS011;65216;51.090;-115.352;2023-12-07T06:15:31;2.90;;;0.80;;
76393;SDS011;65216;51.090;-115.352;2023-12-07T06:17:58;1.60;;;0.60;;
76393;SDS011;65216;51.090;-115.352;2023-12-07T06:20:25;1.80;;;0.70;;
76393;SDS011;65216;51.090;-115.352;2023-12-07T06:22:52;2.30;;;0.60;;
76393;SDS011;65216;51.090;-115.352;2023-12-07T06:25:19;2.70;;;0.60;;
76393;SDS011;65216;51.090;-115.352;2023-12-07T06:27:46;1.70;;;0.50;;
76393;SDS011;65216;51.090;-115.352;2023-12-07T06:30:12;2.00;;;0.60;;
76393;SDS011;65216;51.090;-115.352;2023-12-07T06:32:39;5.00;;;0.80;;
76393;SDS011;65216;51.090;-115.352;2023-12-07T06:35:06;2.10;;;0.60;;
76393;SDS011;65216;51.090;-115.352;2023-12-07T06:37:34;4.80;;;1.10;;
76393;SDS011;65216;51.090;-115.352;2023-12-07T06:40:01;6.40;;;0.80;;
76393;SDS011;65216;51.090;-115.352;2023-12-07T06:42:30;7.10;;;0.90;;
76393;SDS011;65216;51.090;-115.352;2023-12-07T06:45:00;3.80;;;0.70;;
76393;SDS011;65216;51.090;-115.352;2023-12-07T06:47:28;2.90;;;0.50;;
76393;SDS011;65216;51.090;-115.352;2023-12-07T06:49:55;8.20;;;1.00;;
76393;SDS011;65216;51.090;-115.352;2023-12-07T06:52:22;7.10;;;0.70;;
76393;SDS011;65216;51.090;-115.352;2023-12-07T06:54:49;3.50;;;0.70;;
76393;SDS011;65216;51.090;-115.352;2023-12-07T06:57:15;3.70;;;0.80;;
76393;SDS011;65216;51.090;-115.352;2023-12-07T06:59:42;2.10;;;0.50;;
76393;SDS011;65216;51.090;-115.352;2023-12-07T07:02:12;3.00;;;0.70;;
76393;SDS011;65216;51.090;-115.352;2023-12-07T07:04:39;4.40;;;0.70;;
76393;SDS011;65216;51.090;-115.352;2023-12-07T07:07:10;3.00;;;0.70;;
76393;SDS011;65216;51.090;-115.352;2023-12-07T07:09:36;2.30;;;0.50;;
76393;SDS011;65216;51.090;-115.352;2023-12-07T07:12:03;3.70;;;0.50;;
76393;SDS011;65216;51.090;-115.352;2023-12-07T07:14:31;0.80;;;0.20;;
76393;SDS011;65216;51.090;-115.352;2023-12-07T07:16:57;3.20;;;0.70;;
76393;SDS011;65216;51.090;-115.352;2023-12-07T07:19:24;3.40;;;0.40;;
76393;SDS011;65216;51.090;-115.352;2023-12-07T07:21:51;4.20;;;0.40;;
76393;SDS011;65216;51.090;-115.352;2023-12-07T07:24:21;5.70;;;0.90;;
76393;SDS011;65216;51.090;-115.352;2023-12-07T07:26:47;2.70;;;0.60;;
76393;SDS011;65216;51.090;-115.352;2023-12-07T07:29:14;2.70;;;0.40;;
76393;SDS011;65216;51.090;-115.352;2023-12-07T07:31:41;2.20;;;0.40;;
76393;SDS011;65216;51.090;-115.352;2023-12-07T07:34:08;2.00;;;0.30;;
76393;SDS011;65216;51.090;-115.352;2023-12-07T07:36:34;0.40;;;0.20;;
76393;SDS011;65216;51.090;-115.352;2023-12-07T07:39:01;2.50;;;0.50;;
76393;SDS011;65216;51.090;-115.352;2023-12-07T07:41:28;3.00;;;0.30;;
76393;SDS011;65216;51.090;-115.352;2023-12-07T07:43:55;1.80;;;0.30;;
76393;SDS011;65216;51.090;-115.352;2023-12-07T07:46:22;0.70;;;0.10;;
76393;SDS011;65216;51.090;-115.352;2023-12-07T07:48:50;1.50;;;0.40;;
76393;SDS011;65216;51.090;-115.352;2023-12-07T07:51:17;0.20;;;0.20;;
76393;SDS011;65216;51.090;-115.352;2023-12-07T07:53:44;1.10;;;0.40;;
76393;SDS011;65216;51.090;-115.352;2023-12-07T07:56:14;1.10;;;0.40;;
76393;SDS011;65216;51.090;-115.352;2023-12-07T07:58:40;2.60;;;0.30;;
76393;SDS011;65216;51.090;-115.352;2023-12-07T08:01:09;1.10;;;0.40;;
76393;SDS011;65216;51.090;-115.352;2023-12-07T08:03:36;0.50;;;0.20;;
76393;SDS011;65216;51.090;-115.352;2023-12-07T08:06:03;0.70;;;0.10;;
76393;SDS011;65216;51.090;-115.352;2023-12-07T08:08:30;1.90;;;0.30;;
76393;SDS011;65216;51.090;-115.352;2023-12-07T08:11:00;1.60;;;0.40;;
76393;SDS011;65216;51.090;-115.352;2023-12-07T08:13:29;0.20;;;0.20;;
76393;SDS011;65216;51.090;-115.352;2023-12-07T08:15:58;1.90;;;0.30;;
76393;SDS011;65216;51.090;-115.352;2023-12-07T08:18:25;0.40;;;0.20;;
76393;SDS011;65216;51.090;-115.352;2023-12-07T08:20:52;1.50;;;0.20;;
76393;SDS011;65216;51.090;-115.352;2023-12-07T08:23:18;1.50;;;0.10;;
76393;SDS011;65216;51.090;-115.352;2023-12-07T08:25:45;2.10;;;0.20;;
76393;SDS011;65216;51.090;-115.352;2023-12-07T08:28:16;0.20;;;0.20;;
76393;SDS011;65216;51.090;-115.352;2023-12-07T08:30:44;1.00;;;0.20;;
76393;SDS011;65216;51.090;-115.352;2023-12-07T08:33:11;0.40;;;0.10;;
76393;SDS011;65216;51.090;-115.352;2023-12-07T08:35:37;1.00;;;0.10;;
76393;SDS011;65216;51.090;-115.352;2023-12-07T08:38:04;0.60;;;0.20;;
76393;SDS011;65216;51.090;-115.352;2023-12-07T08:40:31;0.40;;;0.10;;
76393;SDS011;65216;51.090;-115.352;2023-12-07T08:42:58;0.30;;;0.20;;
76393;SDS011;65216;51.090;-115.352;2023-12-07T08:45:25;0.30;;;0.20;;
76393;SDS011;65216;51.090;-115.352;2023-12-07T08:47:55;0.00;;;0.00;;
76393;SDS011;65216;51.090;-115.352;2023-12-07T08:50:21;0.40;;;0.20;;
76393;SDS011;65216;51.090;-115.352;2023-12-07T08:52:48;1.00;;;0.40;;
76393;SDS011;65216;51.090;-115.352;2023-12-07T08:55:15;0.40;;;0.20;;
76393;SDS011;65216;51.090;-115.352;2023-12-07T08:57:42;0.40;;;0.30;;
76393;SDS011;65216;51.090;-115.352;2023-12-07T09:00:12;0.80;;;0.20;;
76393;SDS011;65216;51.090;-115.352;2023-12-07T09:02:39;1.20;;;0.20;;
76393;SDS011;65216;51.090;-115.352;2023-12-07T09:05:08;0.70;;;0.20;;
76393;SDS011;65216;51.090;-115.352;2023-12-07T09:07:35;0.70;;;0.30;;
76393;SDS011;65216;51.090;-115.352;2023-12-07T09:10:02;0.40;;;0.20;;
76393;SDS011;65216;51.090;-115.352;2023-12-07T09:12:30;0.20;;;0.20;;
76393;SDS011;65216;51.090;-115.352;2023-12-07T09:14:56;0.80;;;0.20;;
76393;SDS011;65216;51.090;-115.352;2023-12-07T09:17:23;0.20;;;0.20;;
76393;SDS011;65216;51.090;-115.352;2023-12-07T09:19:53;0.10;;;0.10;;
76393;SDS011;65216;51.090;-115.352;2023-12-07T09:22:20;0.90;;;0.20;;
76393;SDS011;65216;51.090;-115.352;2023-12-07T09:24:47;0.10;;;0.10;;
76393;SDS011;65216;51.090;-115.352;2023-12-07T09:27:16;0.10;;;0.10;;
76393;SDS011;65216;51.090;-115.352;2023-12-07T09:29:42;0.40;;;0.20;;
76393;SDS011;65216;51.090;-115.352;2023-12-07T09:32:09;0.20;;;0.00;;
76393;SDS011;65216;51.090;-115.352;2023-12-07T09:34:36;0.50;;;0.10;;
76393;SDS011;65216;51.090;-115.352;2023-12-07T09:37:09;0.70;;;0.10;;
76393;SDS011;65216;51.090;-115.352;2023-12-07T09:39:36;0.50;;;0.20;;
76393;SDS011;65216;51.090;-115.352;2023-12-07T09:42:06;0.20;;;0.20;;
76393;SDS011;65216;51.090;-115.352;2023-12-07T09:44:34;0.30;;;0.10;;
76393;SDS011;65216;51.090;-115.352;2023-12-07T09:47:03;0.10;;;0.10;;
76393;SDS011;65216;51.090;-115.352;2023-12-07T09:49:30;0.10;;;0.10;;
76393;SDS011;65216;51.090;-115.352;2023-12-07T09:52:01;0.50;;;0.20;;
76393;SDS011;65216;51.090;-115.352;2023-12-07T09:54:30;0.10;;;0.10;;
76393;SDS011;65216;51.090;-115.352;2023-12-07T09:56:57;0.70;;;0.20;;
76393;SDS011;65216;51.090;-115.352;2023-12-07T09:59:29;0.20;;;0.10;;
76393;SDS011;65216;51.090;-115.352;2023-12-07T10:01:55;0.00;;;0.00;;
76393;SDS011;65216;51.090;-115.352;2023-12-07T10:04:23;0.30;;;0.10;;
76393;SDS011;65216;51.090;-115.352;2023-12-07T10:06:52;0.10;;;0.10;;
76393;SDS011;65216;51.090;-115.352;2023-12-07T10:09:20;0.20;;;0.00;;
76393;SDS011;65216;51.090;-115.352;2023-12-07T10:11:47;0.00;;;0.00;;
76393;SDS011;65216;51.090;-115.352;2023-12-07T10:14:14;0.30;;;0.10;;
76393;SDS011;65216;51.090;-115.352;2023-12-07T10:16:55;0.10;;;0.10;;
76393;SDS011;65216;51.090;-115.352;2023-12-07T10:19:23;0.10;;;0.10;;
76393;SDS011;65216;51.090;-115.352;2023-12-07T10:21:51;0.70;;;0.10;;
76393;SDS011;65216;51.090;-115.352;2023-12-07T10:24:22;0.00;;;0.00;;
76393;SDS011;65216;51.090;-115.352;2023-12-07T10:26:51;0.10;;;0.10;;
76393;SDS011;65216;51.090;-115.352;2023-12-07T10:29:19;0.10;;;0.10;;
76393;SDS011;65216;51.090;-115.352;2023-12-07T10:31:49;0.10;;;0.00;;
76393;SDS011;65216;51.090;-115.352;2023-12-07T10:34:19;0.00;;;0.00;;
76393;SDS011;65216;51.090;-115.352;2023-12-07T10:36:49;0.10;;;0.00;;
76393;SDS011;65216;51.090;-115.352;2023-12-07T10:41:47;0.10;;;0.10;;
76393;SDS011;65216;51.090;-115.352;2023-12-07T10:44:18;0.10;;;0.10;;
76393;SDS011;65216;51.090;-115.352;2023-12-07T10:46:46;0.20;;;0.10;;
76393;SDS011;65216;51.090;-115.352;2023-12-07T10:49:19;0.10;;;0.10;;
76393;SDS011;65216;51.090;-115.352;2023-12-07T10:51:53;0.20;;;0.10;;
76393;SDS011;65216;51.090;-115.352;2023-12-07T10:54:41;0.60;;;0.10;;
76393;SDS011;65216;51.090;-115.352;2023-12-07T10:57:17;0.70;;;0.10;;
76393;SDS011;65216;51.090;-115.352;2023-12-07T10:59:48;0.00;;;0.00;;
76393;SDS011;65216;51.090;-115.352;2023-12-07T11:02:18;0.00;;;0.00;;
76393;SDS011;65216;51.090;-115.352;2023-12-07T11:04:47;0.10;;;0.00;;
76393;SDS011;65216;51.090;-115.352;2023-12-07T11:07:20;0.10;;;0.10;;
76393;SDS011;65216;51.090;-115.352;2023-12-07T11:09:58;0.10;;;0.10;;
76393;SDS011;65216;51.090;-115.352;2023-12-07T11:12:37;0.40;;;0.10;;
76393;SDS011;65216;51.090;-115.352;2023-12-07T11:15:16;0.50;;;0.10;;
76393;SDS011;65216;51.090;-115.352;2023-12-07T11:17:55;0.10;;;0.00;;
76393;SDS011;65216;51.090;-115.352;2023-12-07T11:23:03;0.00;;;0.00;;
76393;SDS011;65216;51.090;-115.352;2023-12-07T11:25:30;0.10;;;0.00;;
76393;SDS011;65216;51.090;-115.352;2023-12-07T11:28:01;0.30;;;0.30;;
76393;SDS011;65216;51.090;-115.352;2023-12-07T11:30:32;0.30;;;0.10;;
76393;SDS011;65216;51.090;-115.352;2023-12-07T11:33:06;0.20;;;0.00;;
76393;SDS011;65216;51.090;-115.352;2023-12-07T11:38:29;0.10;;;0.10;;
76393;SDS011;65216;51.090;-115.352;2023-12-07T11:40:56;0.00;;;0.00;;
76393;SDS011;65216;51.090;-115.352;2023-12-07T11:46:01;0.00;;;0.00;;
76393;SDS011;65216;51.090;-115.352;2023-12-07T11:48:30;0.00;;;0.00;;
76393;SDS011;65216;51.090;-115.352;2023-12-07T11:51:06;0.10;;;0.00;;
76393;SDS011;65216;51.090;-115.352;2023-12-07T11:53:35;0.20;;;0.00;;
76393;SDS011;65216;51.090;-115.352;2023-12-07T11:56:05;0.40;;;0.10;;
76393;SDS011;65216;51.090;-115.352;2023-12-07T11:58:35;0.30;;;0.10;;
76393;SDS011;65216;51.090;-115.352;2023-12-07T12:01:08;0.60;;;0.00;;
76393;SDS011;65216;51.090;-115.352;2023-12-07T12:03:35;0.50;;;0.20;;
76393;SDS011;65216;51.090;-115.352;2023-12-07T12:06:05;0.10;;;0.00;;
76393;SDS011;65216;51.090;-115.352;2023-12-07T12:08:36;0.00;;;0.00;;
76393;SDS011;65216;51.090;-115.352;2023-12-07T12:11:05;0.00;;;0.00;;
76393;SDS011;65216;51.090;-115.352;2023-12-07T12:13:36;0.10;;;0.10;;
76393;SDS011;65216;51.090;-115.352;2023-12-07T12:16:04;0.10;;;0.00;;
76393;SDS011;65216;51.090;-115.352;2023-12-07T12:18:34;0.40;;;0.10;;
76393;SDS011;65216;51.090;-115.352;2023-12-07T12:21:03;0.10;;;0.10;;
76393;SDS011;65216;51.090;-115.352;2023-12-07T12:23:30;1.10;;;0.10;;
76393;SDS011;65216;51.090;-115.352;2023-12-07T12:25:59;0.00;;;0.00;;
76393;SDS011;65216;51.090;-115.352;2023-12-07T12:28:27;0.10;;;0.10;;
76393;SDS011;65216;51.090;-115.352;2023-12-07T12:30:55;0.00;;;0.00;;
76393;SDS011;65216;51.090;-115.352;2023-12-07T12:33:22;0.10;;;0.10;;
76393;SDS011;65216;51.090;-115.352;2023-12-07T12:36:11;0.30;;;0.10;;
76393;SDS011;65216;51.090;-115.352;2023-12-07T12:38:38;0.50;;;0.10;;
76393;SDS011;65216;51.090;-115.352;2023-12-07T12:41:05;0.00;;;0.00;;
76393;SDS011;65216;51.090;-115.352;2023-12-07T12:43:35;0.00;;;0.00;;
76393;SDS011;65216;51.090;-115.352;2023-12-07T12:46:02;0.20;;;0.10;;
76393;SDS011;65216;51.090;-115.352;2023-12-07T12:48:30;0.30;;;0.10;;
76393;SDS011;65216;51.090;-115.352;2023-12-07T12:50:57;0.00;;;0.00;;
76393;SDS011;65216;51.090;-115.352;2023-12-07T12:53:33;0.10;;;0.00;;
76393;SDS011;65216;51.090;-115.352;2023-12-07T12:55:59;0.20;;;0.10;;
76393;SDS011;65216;51.090;-115.352;2023-12-07T12:58:27;0.10;;;0.00;;
76393;SDS011;65216;51.090;-115.352;2023-12-07T13:00:54;0.00;;;0.00;;
76393;SDS011;65216;51.090;-115.352;2023-12-07T13:03:22;0.00;;;0.00;;
76393;SDS011;65216;51.090;-115.352;2023-12-07T13:05:49;0.10;;;0.10;;
76393;SDS011;65216;51.090;-115.352;2023-12-07T13:08:16;0.00;;;0.00;;
76393;SDS011;65216;51.090;-115.352;2023-12-07T13:10:43;0.10;;;0.10;;
76393;SDS011;65216;51.090;-115.352;2023-12-07T13:13:10;0.70;;;0.10;;
76393;SDS011;65216;51.090;-115.352;2023-12-07T13:15:36;0.10;;;0.00;;
76393;SDS011;65216;51.090;-115.352;2023-12-07T13:18:03;0.10;;;0.10;;
76393;SDS011;65216;51.090;-115.352;2023-12-07T13:20:32;0.10;;;0.10;;
76393;SDS011;65216;51.090;-115.352;2023-12-07T13:23:01;0.20;;;0.00;;
76393;SDS011;65216;51.090;-115.352;2023-12-07T13:25:28;0.00;;;0.00;;
76393;SDS011;65216;51.090;-115.352;2023-12-07T13:27:54;0.00;;;0.00;;
76393;SDS011;65216;51.090;-115.352;2023-12-07T13:30:23;0.00;;;0.00;;
76393;SDS011;65216;51.090;-115.352;2023-12-07T13:32:55;0.00;;;0.00;;
76393;SDS011;65216;51.090;-115.352;2023-12-07T13:35:22;0.40;;;0.10;;
76393;SDS011;65216;51.090;-115.352;2023-12-07T13:37:49;0.00;;;0.00;;
76393;SDS011;65216;51.090;-115.352;2023-12-07T13:40:16;0.00;;;0.00;;
76393;SDS011;65216;51.090;-115.352;2023-12-07T13:42:43;0.10;;;0.00;;
76393;SDS011;65216;51.090;-115.352;2023-12-07T13:45:12;0.00;;;0.00;;
76393;SDS011;65216;51.090;-115.352;2023-12-07T13:47:39;0.20;;;0.10;;
76393;SDS011;65216;51.090;-115.352;2023-12-07T13:50:07;1.00;;;0.10;;
76393;SDS011;65216;51.090;-115.352;2023-12-07T13:52:34;0.00;;;0.00;;
76393;SDS011;65216;51.090;-115.352;2023-12-07T13:55:00;0.00;;;0.00;;
76393;SDS011;65216;51.090;-115.352;2023-12-07T13:57:28;0.00;;;0.00;;
76393;SDS011;65216;51.090;-115.352;2023-12-07T13:59:54;0.00;;;0.00;;
76393;SDS011;65216;51.090;-115.352;2023-12-07T14:02:22;0.00;;;0.00;;
76393;SDS011;65216;51.090;-115.352;2023-12-07T14:04:50;0.00;;;0.00;;
76393;SDS011;65216;51.090;-115.352;2023-12-07T14:07:20;0.00;;;0.00;;
76393;SDS011;65216;51.090;-115.352;2023-12-07T14:09:52;0.20;;;0.00;;
76393;SDS011;65216;51.090;-115.352;2023-12-07T14:12:19;0.00;;;0.00;;
76393;SDS011;65216;51.090;-115.352;2023-12-07T14:14:47;0.10;;;0.10;;
76393;SDS011;65216;51.090;-115.352;2023-12-07T14:17:16;0.10;;;0.10;;
76393;SDS011;65216;51.090;-115.352;2023-12-07T14:19:46;0.10;;;0.00;;
76393;SDS011;65216;51.090;-115.352;2023-12-07T14:22:16;0.10;;;0.00;;
76393;SDS011;65216;51.090;-115.352;2023-12-07T14:24:42;0.00;;;0.00;;
76393;SDS011;65216;51.090;-115.352;2023-12-07T14:27:11;0.00;;;0.00;;
76393;SDS011;65216;51.090;-115.352;2023-12-07T14:29:38;0.00;;;0.00;;